Global Triumph — V7DU5 — position and weather

sailwx.info

Track history (hours):
 
Tides and Currents Weather Stations Pressure Air Temp Water Temp Dewpoint Dewpoint Depression Visibility Wind Speed Wind Dir Waves Ship Positions

Global Triumph

Last reported at 2018-Feb-11 18:30 UTC. Time now 2018-Feb-22 21:08 UTC.
Position N 01°14' E 104°01'.
Warning: this ship's position is 11 days out of date.

Length 225 m; draft 6.9 m.

Type: Cargo ship. MMSI: 538001709.

Date/timePositionNaut miles runAvg speedWind from/ knotsBaromVisibWave heightAir tempDewpointWater temp
2018-Feb-11 18:30N 01°14' E 104°01'612.5
2018-Feb-11 17:59N 01°13' E 103°55'611.4
2018-Feb-11 17:29N 01°12' E 103°49'4 8.8
2018-Feb-11 17:00N 01°15' E 103°46'2 5.0
2018-Feb-11 16:30N 01°17' E 103°45'0 0.0
2018-Feb-11 15:57N 01°17' E 103°45'0 0.0
2018-Feb-11 15:27N 01°17' E 103°45'0 0.0
2018-Feb-11 14:57N 01°17' E 103°45'0 0.0
2018-Feb-11 14:30N 01°17' E 103°45'0 0.0
2018-Feb-11 13:57N 01°17' E 103°45'0 0.0
2018-Feb-11 13:30N 01°17' E 103°45'0 0.0
2018-Feb-11 12:57N 01°17' E 103°45'0 0.0
2018-Feb-11 12:30N 01°17' E 103°45'0 0.0
2018-Feb-11 11:51N 01°17' E 103°45'0 0.0
2018-Feb-11 11:24N 01°17' E 103°45'0 0.0
2018-Feb-11 10:57N 01°17' E 103°45'0 0.0
2018-Feb-11 10:27N 01°17' E 103°45'0 0.1
2018-Feb-11 09:57N 01°17' E 103°45'0 0.0
2018-Feb-11 09:30N 01°17' E 103°45'0 0.1
2018-Feb-11 08:57N 01°17' E 103°45'0 0.0
2018-Feb-11 08:30N 01°17' E 103°45'0 0.0
2018-Feb-11 07:57N 01°17' E 103°45'0 0.0
2018-Feb-11 07:30N 01°17' E 103°45'0 0.0
2018-Feb-11 06:57N 01°17' E 103°45'0 0.0
2018-Feb-11 06:30N 01°17' E 103°45'0 0.0
2018-Feb-11 06:01N 01°17' E 103°45'0 0.3
2018-Feb-11 05:31N 01°17' E 103°45'1 2.8
2018-Feb-11 05:00N 01°16' E 103°46'4 8.5
2018-Feb-11 04:30N 01°14' E 103°42'611.8
2018-Feb-11 04:00N 01°12' E 103°36'4 8.3
2018-Feb-11 03:30N 01°10' E 103°33'5 8.5
2018-Feb-11 02:58N 01°10' E 103°28'713.9
2018-Feb-11 02:29N 01°13' E 103°22'1014.1
2018-Feb-11 01:44N 01°21' E 103°15'2614.2
2018-Feb-10 23:54N 01°35' E 102°53'715.2
2018-Feb-10 23:27N 01°38' E 102°47'715.2
2018-Feb-10 23:00N 01°42' E 102°41'815.3
2018-Feb-10 22:30N 01°45' E 102°34'815.3
2018-Feb-10 22:00N 01°49' E 102°27'815.0
2018-Feb-10 21:28N 01°52' E 102°20'  
Track history (hours):
 
Tides and Currents Weather Stations Pressure Air Temp Water Temp Dewpoint Dewpoint Depression Visibility Wind Speed Wind Dir Waves Ship Positions

Global Triumph

Last reported at 2018-Feb-11 18:30 UTC. Time now 2018-Feb-22 21:08 UTC.
Position N 01°14' E 104°01'.
Warning: this ship's position is 11 days out of date.

Length 225 m; draft 6.9 m.

Type: Cargo ship. MMSI: 538001709.

Date/timePositionNaut miles runAvg speedWind from/ knotsBaromVisibWave heightAir tempDewpointWater temp
2018-Feb-11 18:30N 01°14' E 104°01'612.5
2018-Feb-11 17:59N 01°13' E 103°55'611.4
2018-Feb-11 17:29N 01°12' E 103°49'4 8.8
2018-Feb-11 17:00N 01°15' E 103°46'2 5.0
2018-Feb-11 16:30N 01°17' E 103°45'0 0.0
2018-Feb-11 15:57N 01°17' E 103°45'0 0.0
2018-Feb-11 15:27N 01°17' E 103°45'0 0.0
2018-Feb-11 14:57N 01°17' E 103°45'0 0.0
2018-Feb-11 14:30N 01°17' E 103°45'0 0.0
2018-Feb-11 13:57N 01°17' E 103°45'0 0.0
2018-Feb-11 13:30N 01°17' E 103°45'0 0.0
2018-Feb-11 12:57N 01°17' E 103°45'0 0.0
2018-Feb-11 12:30N 01°17' E 103°45'0 0.0
2018-Feb-11 11:51N 01°17' E 103°45'0 0.0
2018-Feb-11 11:24N 01°17' E 103°45'0 0.0
2018-Feb-11 10:57N 01°17' E 103°45'0 0.0
2018-Feb-11 10:27N 01°17' E 103°45'0 0.1
2018-Feb-11 09:57N 01°17' E 103°45'0 0.0
2018-Feb-11 09:30N 01°17' E 103°45'0 0.1
2018-Feb-11 08:57N 01°17' E 103°45'0 0.0
2018-Feb-11 08:30N 01°17' E 103°45'0 0.0
2018-Feb-11 07:57N 01°17' E 103°45'0 0.0
2018-Feb-11 07:30N 01°17' E 103°45'0 0.0
2018-Feb-11 06:57N 01°17' E 103°45'0 0.0
2018-Feb-11 06:30N 01°17' E 103°45'0 0.0
2018-Feb-11 06:01N 01°17' E 103°45'0 0.3
2018-Feb-11 05:31N 01°17' E 103°45'1 2.8
2018-Feb-11 05:00N 01°16' E 103°46'4 8.5
2018-Feb-11 04:30N 01°14' E 103°42'611.8
2018-Feb-11 04:00N 01°12' E 103°36'4 8.3
2018-Feb-11 03:30N 01°10' E 103°33'5 8.5
2018-Feb-11 02:58N 01°10' E 103°28'713.9
2018-Feb-11 02:29N 01°13' E 103°22'1014.1
2018-Feb-11 01:44N 01°21' E 103°15'2614.2
2018-Feb-10 23:54N 01°35' E 102°53'715.2
2018-Feb-10 23:27N 01°38' E 102°47'715.2
2018-Feb-10 23:00N 01°42' E 102°41'815.3
2018-Feb-10 22:30N 01°45' E 102°34'815.3
2018-Feb-10 22:00N 01°49' E 102°27'815.0
2018-Feb-10 21:28N 01°52' E 102°20'  

Dump ship's entire track history